Time;durP1;ratioP1;P1;durP2;ratioP2;P2;SDS_P1;SDS_P2;PMS_P1;PMS_P2;Temp;Humidity;BMP_temperature;BMP_pressure;BME280_temperature;BME280_humidity;BME280_pressure;Samples;Min_cycle;Max_cycle;Signal;HPM_P1;HPM_P2
2022/04/14 00:02:16;;;;;;;;;15.25;14.25;;;;;;;;5056027;28;45522;-69
2022/04/14 00:04:41;;;;;;;;;15.00;14.75;;;;;;;;5057420;28;45381;-69
2022/04/14 00:07:06;;;;;;;;;14.75;14.00;;;;;;;;5056972;28;45334;-70
2022/04/14 00:09:32;;;;;;;;;13.50;13.00;;;;;;;;5058762;28;45476;-70
2022/04/14 00:11:57;;;;;;;;;15.25;14.75;;;;;;;;5058902;28;45262;-70
2022/04/14 00:14:23;;;;;;;;;13.00;12.00;;;;;;;;5058859;28;45455;-70
2022/04/14 00:16:48;;;;;;;;;18.75;16.75;;;;;;;;5058497;28;45457;-70
2022/04/14 00:19:13;;;;;;;;;15.75;14.00;;;;;;;;5058564;28;45504;-70
2022/04/14 00:21:39;;;;;;;;;14.00;12.75;;;;;;;;5057153;28;46138;-70
2022/04/14 00:24:05;;;;;;;;;18.25;15.25;;;;;;;;5058920;28;45447;-70
2022/04/14 00:26:31;;;;;;;;;15.50;13.75;;;;;;;;5058353;28;45441;-69
2022/04/14 00:28:56;;;;;;;;;14.25;13.25;;;;;;;;5058287;28;45362;-70
2022/04/14 00:31:22;;;;;;;;;17.75;14.50;;;;;;;;5058064;28;45366;-70
2022/04/14 00:33:47;;;;;;;;;17.25;15.50;;;;;;;;5057928;28;45485;-70
2022/04/14 00:36:13;;;;;;;;;15.75;15.00;;;;;;;;5057921;28;45913;-70
2022/04/14 00:38:38;;;;;;;;;13.50;13.25;;;;;;;;5056607;28;45752;-70
2022/04/14 00:41:03;;;;;;;;;16.00;15.00;;;;;;;;5058405;28;45332;-70
2022/04/14 00:43:32;;;;;;;;;13.50;12.75;;;;;;;;5058079;28;45473;-70
2022/04/14 00:45:59;;;;;;;;;16.25;15.25;;;;;;;;5056682;28;46408;-70
2022/04/14 00:48:25;;;;;;;;;15.25;13.25;;;;;;;;5056556;28;45416;-70
2022/04/14 00:50:50;;;;;;;;;17.25;10.75;;;;;;;;5058075;28;45481;-70
2022/04/14 00:53:16;;;;;;;;;15.00;14.00;;;;;;;;5058096;28;45513;-70
2022/04/14 00:55:41;;;;;;;;;14.00;13.50;;;;;;;;5057797;28;45549;-70
2022/04/14 00:58:06;;;;;;;;;17.50;15.75;;;;;;;;5056951;28;45461;-70
2022/04/14 01:00:32;;;;;;;;;15.50;14.50;;;;;;;;5056763;28;45487;-70
2022/04/14 01:02:57;;;;;;;;;17.75;14.50;;;;;;;;5058250;28;46029;-70
2022/04/14 01:05:24;;;;;;;;;14.50;13.00;;;;;;;;5057661;28;45532;-70
2022/04/14 01:07:49;;;;;;;;;17.00;16.00;;;;;;;;5056164;28;45966;-70
2022/04/14 01:10:15;;;;;;;;;17.25;14.00;;;;;;;;5057749;28;45485;-70
2022/04/14 01:12:41;;;;;;;;;16.50;13.25;;;;;;;;5057969;28;45327;-70
2022/04/14 01:15:13;;;;;;;;;15.25;13.50;;;;;;;;5057707;28;45435;-70
2022/04/14 01:17:39;;;;;;;;;15.75;15.00;;;;;;;;5056612;28;45346;-70
2022/04/14 01:20:04;;;;;;;;;15.00;14.50;;;;;;;;5056305;28;45411;-70
2022/04/14 01:22:30;;;;;;;;;21.00;18.00;;;;;;;;5056488;28;45977;-70
2022/04/14 01:24:57;;;;;;;;;18.25;15.00;;;;;;;;5056219;28;46414;-70
2022/04/14 01:27:23;;;;;;;;;14.25;12.75;;;;;;;;5057365;28;45419;-70
2022/04/14 01:29:51;;;;;;;;;15.25;15.25;;;;;;;;5056049;28;45460;-69
2022/04/14 01:32:18;;;;;;;;;17.50;14.50;;;;;;;;5057748;28;45274;-70
2022/04/14 01:34:43;;;;;;;;;15.50;14.50;;;;;;;;5057269;28;45476;-70
2022/04/14 01:37:09;;;;;;;;;17.50;15.25;;;;;;;;5057490;28;45634;-70
2022/04/14 01:39:34;;;;;;;;;16.25;14.00;;;;;;;;5056259;28;45770;-70
2022/04/14 01:41:59;;;;;;;;;16.75;14.50;;;;;;;;5057719;28;45352;-70
2022/04/14 01:44:25;;;;;;;;;14.00;12.75;;;;;;;;5056272;28;45438;-70
2022/04/14 01:46:50;;;;;;;;;18.25;15.50;;;;;;;;5056828;28;45303;-70
2022/04/14 01:49:15;;;;;;;;;16.25;14.00;;;;;;;;5057238;28;45388;-70
2022/04/14 01:51:41;;;;;;;;;17.75;15.50;;;;;;;;5057574;28;45362;-70
2022/04/14 01:54:06;;;;;;;;;14.00;13.25;;;;;;;;5057121;28;45326;-70
2022/04/14 01:56:32;;;;;;;;;17.50;14.25;;;;;;;;5057183;28;45462;-71
2022/04/14 01:58:57;;;;;;;;;16.75;15.75;;;;;;;;5057288;28;45416;-70
2022/04/14 02:01:23;;;;;;;;;14.00;13.50;;;;;;;;5057355;28;45440;-70
2022/04/14 02:03:48;;;;;;;;;15.00;14.75;;;;;;;;5057113;28;46296;-70
2022/04/14 02:06:14;;;;;;;;;13.25;12.25;;;;;;;;5056993;28;45439;-70
2022/04/14 02:08:40;;;;;;;;;13.00;12.25;;;;;;;;5057240;28;45367;-70
2022/04/14 02:11:06;;;;;;;;;16.25;14.50;;;;;;;;5057010;28;45540;-70
2022/04/14 02:13:32;;;;;;;;;17.00;16.25;;;;;;;;5056704;28;46044;-70
2022/04/14 02:15:57;;;;;;;;;18.00;17.00;;;;;;;;5056681;28;45494;-70
2022/04/14 02:18:23;;;;;;;;;16.75;14.25;;;;;;;;5057065;28;45275;-70
2022/04/14 02:20:48;;;;;;;;;15.00;13.50;;;;;;;;5057036;28;45414;-70
2022/04/14 02:23:14;;;;;;;;;16.00;14.00;;;;;;;;5055734;28;46553;-70
2022/04/14 02:25:40;;;;;;;;;13.75;13.75;;;;;;;;5056970;28;45427;-70
2022/04/14 02:28:05;;;;;;;;;16.75;15.00;;;;;;;;5056526;28;45408;-70
2022/04/14 02:30:32;;;;;;;;;15.75;15.00;;;;;;;;5056668;28;45448;-70
2022/04/14 02:32:58;;;;;;;;;12.25;12.00;;;;;;;;5056561;28;45399;-70
2022/04/14 02:35:23;;;;;;;;;18.00;15.25;;;;;;;;5056579;28;45334;-70
2022/04/14 02:37:48;;;;;;;;;16.00;13.75;;;;;;;;5056814;28;45397;-70
2022/04/14 02:40:14;;;;;;;;;16.50;15.25;;;;;;;;5057106;28;45532;-70
2022/04/14 02:42:41;;;;;;;;;18.00;16.25;;;;;;;;5056736;28;46668;-70
2022/04/14 02:45:07;;;;;;;;;19.50;16.00;;;;;;;;5056430;28;45389;-70
2022/04/14 02:47:35;;;;;;;;;16.75;14.50;;;;;;;;5056644;28;45482;-70
2022/04/14 02:50:00;;;;;;;;;15.00;14.00;;;;;;;;5056282;28;45405;-70
2022/04/14 02:52:25;;;;;;;;;19.25;17.50;;;;;;;;5056414;28;45352;-70
2022/04/14 02:54:51;;;;;;;;;18.75;15.75;;;;;;;;5056430;28;45298;-70
2022/04/14 02:57:16;;;;;;;;;16.50;14.75;;;;;;;;5058926;28;45682;-70
2022/04/14 02:59:41;;;;;;;;;15.75;15.25;;;;;;;;5060515;28;45508;-70
2022/04/14 03:02:07;;;;;;;;;19.00;16.50;;;;;;;;5059831;28;45469;-70
2022/04/14 03:04:32;;;;;;;;;14.00;12.00;;;;;;;;5059634;28;45456;-69
2022/04/14 03:06:57;;;;;;;;;15.75;13.75;;;;;;;;5059988;28;45324;-70
2022/04/14 03:09:23;;;;;;;;;17.00;14.50;;;;;;;;5059808;28;45476;-70
2022/04/14 03:11:48;;;;;;;;;15.25;14.50;;;;;;;;5059376;28;45608;-70
2022/04/14 03:14:13;;;;;;;;;17.50;16.00;;;;;;;;5059959;28;45443;-70
2022/04/14 03:16:39;;;;;;;;;17.50;15.50;;;;;;;;5059744;28;45466;-70
2022/04/14 03:19:04;;;;;;;;;17.75;16.50;;;;;;;;5058543;28;45422;-70
2022/04/14 03:21:30;;;;;;;;;17.75;16.00;;;;;;;;5059517;28;45448;-70
2022/04/14 03:23:55;;;;;;;;;17.50;15.75;;;;;;;;5059578;28;45514;-70
2022/04/14 03:26:20;;;;;;;;;16.50;14.75;;;;;;;;5059649;28;45453;-70
2022/04/14 03:28:46;;;;;;;;;18.00;14.25;;;;;;;;5059853;28;45406;-70
2022/04/14 03:31:11;;;;;;;;;18.00;16.50;;;;;;;;5058899;28;46225;-70
2022/04/14 03:33:37;;;;;;;;;19.25;18.75;;;;;;;;5058749;28;45326;-70
2022/04/14 03:36:02;;;;;;;;;20.00;17.75;;;;;;;;5059273;28;45531;-70
2022/04/14 03:38:28;;;;;;;;;15.75;13.00;;;;;;;;5059542;28;45930;-70
2022/04/14 03:40:53;;;;;;;;;20.25;17.00;;;;;;;;5059255;28;46129;-69
2022/04/14 03:43:19;;;;;;;;;16.00;14.25;;;;;;;;5059134;28;45418;-70
2022/04/14 03:45:44;;;;;;;;;17.75;15.00;;;;;;;;5059667;28;45540;-70
2022/04/14 03:48:10;;;;;;;;;16.50;15.50;;;;;;;;5059456;28;45338;-70
2022/04/14 03:50:35;;;;;;;;;20.25;18.25;;;;;;;;5058996;28;46027;-70
2022/04/14 03:53:01;;;;;;;;;20.25;16.00;;;;;;;;5058609;28;45479;-70
2022/04/14 03:55:26;;;;;;;;;17.00;14.50;;;;;;;;5057798;28;45402;-70
2022/04/14 03:57:51;;;;;;;;;16.75;15.00;;;;;;;;5059245;28;45295;-70
2022/04/14 04:00:17;;;;;;;;;21.00;17.00;;;;;;;;5057788;28;47437;-70
2022/04/14 04:02:42;;;;;;;;;18.25;17.25;;;;;;;;5058936;28;45368;-70
2022/04/14 04:05:08;;;;;;;;;17.00;15.25;;;;;;;;5058998;28;45964;-70
2022/04/14 04:07:33;;;;;;;;;17.50;15.00;;;;;;;;5058491;28;45500;-70
2022/04/14 04:09:58;;;;;;;;;19.00;16.25;;;;;;;;5058554;28;45432;-70
2022/04/14 04:12:24;;;;;;;;;17.25;14.75;;;;;;;;5058765;28;45515;-69
2022/04/14 04:14:49;;;;;;;;;14.25;13.50;;;;;;;;5057644;28;45522;-70
2022/04/14 04:17:15;;;;;;;;;14.75;13.25;;;;;;;;5058836;28;45512;-70
2022/04/14 04:19:42;;;;;;;;;14.00;12.50;;;;;;;;5058408;28;45465;-70
2022/04/14 04:22:08;;;;;;;;;18.00;15.25;;;;;;;;5058316;28;45340;-70
2022/04/14 04:24:33;;;;;;;;;16.25;14.75;;;;;;;;5058669;28;45301;-70
2022/04/14 04:26:58;;;;;;;;;15.50;13.25;;;;;;;;5057576;28;45563;-70
2022/04/14 04:29:24;;;;;;;;;15.75;15.50;;;;;;;;5058293;28;46118;-70
2022/04/14 04:31:49;;;;;;;;;13.75;13.00;;;;;;;;5057254;28;45255;-70
2022/04/14 04:34:15;;;;;;;;;15.25;14.00;;;;;;;;5058384;28;45871;-70
2022/04/14 04:36:40;;;;;;;;;12.50;12.00;;;;;;;;5057071;28;45271;-70
2022/04/14 04:39:05;;;;;;;;;35.25;32.25;;;;;;;;5057950;28;46353;-70
2022/04/14 04:41:31;;;;;;;;;20.75;18.75;;;;;;;;5058148;28;45417;-70
2022/04/14 04:43:56;;;;;;;;;35.75;33.00;;;;;;;;5058114;28;45318;-70
2022/04/14 04:46:21;;;;;;;;;15.00;14.25;;;;;;;;5058440;28;45778;-70
2022/04/14 04:48:47;;;;;;;;;15.00;14.00;;;;;;;;5056927;28;47952;-70
2022/04/14 04:51:12;;;;;;;;;23.50;22.50;;;;;;;;5057909;28;45287;-70
2022/04/14 04:53:38;;;;;;;;;15.50;13.00;;;;;;;;5058165;28;45418;-70
2022/04/14 04:56:03;;;;;;;;;13.25;13.00;;;;;;;;5058354;28;45448;-70
2022/04/14 04:58:29;;;;;;;;;12.50;11.50;;;;;;;;5057786;28;46112;-70
2022/04/14 05:00:54;;;;;;;;;11.50;10.50;;;;;;;;5057867;28;45455;-70
2022/04/14 05:03:21;;;;;;;;;11.75;11.50;;;;;;;;5056050;28;45373;-70
2022/04/14 05:05:46;;;;;;;;;16.25;13.00;;;;;;;;5058065;28;45330;-70
2022/04/14 05:08:12;;;;;;;;;12.00;11.00;;;;;;;;5057411;28;45402;-69
2022/04/14 05:10:37;;;;;;;;;11.25;11.25;;;;;;;;5057865;28;45461;-70
2022/04/14 05:13:03;;;;;;;;;14.00;12.75;;;;;;;;5057905;28;45246;-70
2022/04/14 05:15:29;;;;;;;;;16.75;13.00;;;;;;;;5056470;28;45495;-70
2022/04/14 05:17:55;;;;;;;;;13.25;12.00;;;;;;;;5057124;28;45516;-70
2022/04/14 05:20:20;;;;;;;;;13.00;12.00;;;;;;;;5057846;28;45279;-70
2022/04/14 05:22:46;;;;;;;;;10.75;10.75;;;;;;;;5057627;28;45433;-70
2022/04/14 05:25:11;;;;;;;;;13.50;12.25;;;;;;;;5055908;28;45481;-69
2022/04/14 05:27:37;;;;;;;;;13.75;12.75;;;;;;;;5055752;28;45489;-69
2022/04/14 05:30:03;;;;;;;;;13.50;13.00;;;;;;;;5054204;28;45413;-69
2022/04/14 05:32:28;;;;;;;;;10.75;10.00;;;;;;;;5055641;28;45388;-70
2022/04/14 05:34:53;;;;;;;;;14.00;12.00;;;;;;;;5055942;28;45350;-70
2022/04/14 05:37:19;;;;;;;;;11.75;11.25;;;;;;;;5056005;28;45488;-69
2022/04/14 05:39:44;;;;;;;;;13.00;12.00;;;;;;;;5055615;28;45652;-69
2022/04/14 05:42:10;;;;;;;;;10.00;10.00;;;;;;;;5055729;28;45433;-69
2022/04/14 05:44:36;;;;;;;;;10.75;10.50;;;;;;;;5055879;28;45432;-68
2022/04/14 05:47:01;;;;;;;;;11.50;11.50;;;;;;;;5053945;28;45655;-69
2022/04/14 05:49:26;;;;;;;;;13.00;10.75;;;;;;;;5054031;28;45459;-68
2022/04/14 05:51:52;;;;;;;;;13.00;13.00;;;;;;;;5055910;28;46271;-69
2022/04/14 05:54:17;;;;;;;;;12.00;11.00;;;;;;;;5055807;28;45540;-69
2022/04/14 05:56:42;;;;;;;;;12.75;12.00;;;;;;;;5055183;28;45960;-69
2022/04/14 05:59:16;;;;;;;;;13.50;11.75;;;;;;;;5055440;28;45560;-69
2022/04/14 06:01:41;;;;;;;;;12.25;12.00;;;;;;;;5052778;28;45387;-69
2022/04/14 06:04:06;;;;;;;;;12.25;12.00;;;;;;;;5056315;28;45450;-69
2022/04/14 06:06:32;;;;;;;;;13.00;12.00;;;;;;;;5056958;28;46470;-69
2022/04/14 06:08:57;;;;;;;;;11.50;9.75;;;;;;;;5057055;28;45322;-69
2022/04/14 06:11:22;;;;;;;;;10.50;10.00;;;;;;;;5057088;28;45586;-69
2022/04/14 06:13:48;;;;;;;;;12.50;12.00;;;;;;;;5057032;28;45561;-69
2022/04/14 06:16:13;;;;;;;;;13.75;11.25;;;;;;;;5056764;28;46430;-68
2022/04/14 06:18:38;;;;;;;;;14.75;13.00;;;;;;;;5056808;28;45463;-69
2022/04/14 06:21:04;;;;;;;;;13.00;11.25;;;;;;;;5056964;28;45359;-69
2022/04/14 06:23:29;;;;;;;;;14.50;13.00;;;;;;;;5056828;28;45418;-69
2022/04/14 06:25:55;;;;;;;;;11.75;11.00;;;;;;;;5056618;28;45885;-69
2022/04/14 06:28:20;;;;;;;;;9.25;8.00;;;;;;;;5056929;28;45310;-69
2022/04/14 06:30:46;;;;;;;;;11.00;10.25;;;;;;;;5056333;28;45496;-69
2022/04/14 06:33:11;;;;;;;;;12.33;10.33;;;;;;;;5060346;28;45571;-69
2022/04/14 06:35:37;;;;;;;;;13.00;12.50;;;;;;;;5058770;28;46828;-69
2022/04/14 06:38:02;;;;;;;;;11.75;10.00;;;;;;;;5060113;28;45398;-69
2022/04/14 06:40:28;;;;;;;;;12.25;11.50;;;;;;;;5060244;28;45425;-69
2022/04/14 06:42:53;;;;;;;;;13.00;11.00;;;;;;;;5060442;28;45490;-69
2022/04/14 06:45:19;;;;;;;;;12.75;12.50;;;;;;;;5059909;28;45409;-69
2022/04/14 06:47:44;;;;;;;;;13.25;12.00;;;;;;;;5059980;28;45355;-69
2022/04/14 06:50:09;;;;;;;;;18.00;14.25;;;;;;;;5060140;28;45504;-69
2022/04/14 06:52:36;;;;;;;;;14.50;11.75;;;;;;;;5060066;28;45471;-69
2022/04/14 06:55:02;;;;;;;;;17.75;15.50;;;;;;;;5059909;28;45378;-69
2022/04/14 06:57:27;;;;;;;;;13.75;11.75;;;;;;;;5059760;28;45328;-69
2022/04/14 06:59:53;;;;;;;;;21.00;19.00;;;;;;;;5059676;28;45393;-69
2022/04/14 07:02:18;;;;;;;;;23.00;22.25;;;;;;;;5059786;28;45370;-69
2022/04/14 07:04:43;;;;;;;;;21.25;20.50;;;;;;;;5059617;28;45282;-69
2022/04/14 07:07:09;;;;;;;;;14.00;13.00;;;;;;;;5058318;28;45468;-69
2022/04/14 07:09:34;;;;;;;;;12.75;11.50;;;;;;;;5059759;28;45427;-69
2022/04/14 07:12:01;;;;;;;;;11.75;11.00;;;;;;;;5059796;28;45565;-69
2022/04/14 07:14:27;;;;;;;;;11.00;10.25;;;;;;;;5059659;28;45627;-69
2022/04/14 07:16:53;;;;;;;;;8.00;7.75;;;;;;;;5059636;28;46062;-69
2022/04/14 07:19:18;;;;;;;;;12.25;10.75;;;;;;;;5059179;28;45479;-69
2022/04/14 07:21:44;;;;;;;;;12.75;11.00;;;;;;;;5059641;28;45460;-69
2022/04/14 07:24:10;;;;;;;;;14.00;12.25;;;;;;;;5059261;28;45550;-69
2022/04/14 07:26:36;;;;;;;;;13.00;11.75;;;;;;;;5059050;28;45255;-69
2022/04/14 07:29:02;;;;;;;;;12.25;12.25;;;;;;;;5057688;28;45417;-69
2022/04/14 07:31:27;;;;;;;;;14.00;12.75;;;;;;;;5057633;28;45448;-69
2022/04/14 07:33:52;;;;;;;;;10.67;9.67;;;;;;;;5057196;28;45362;-69
2022/04/14 07:36:18;;;;;;;;;17.50;17.25;;;;;;;;5057167;28;45350;-68
2022/04/14 07:38:43;;;;;;;;;14.00;12.25;;;;;;;;5057087;28;46326;-69
2022/04/14 07:41:09;;;;;;;;;14.00;12.00;;;;;;;;5057301;28;45426;-69
2022/04/14 07:43:34;;;;;;;;;15.00;13.00;;;;;;;;5055707;28;45344;-69
2022/04/14 07:45:59;;;;;;;;;13.50;12.50;;;;;;;;5056786;28;45438;-69
2022/04/14 07:48:25;;;;;;;;;12.25;11.75;;;;;;;;5057172;28;45397;-68
2022/04/14 07:50:50;;;;;;;;;13.25;12.50;;;;;;;;5057145;28;45433;-68
2022/04/14 07:53:15;;;;;;;;;11.75;10.00;;;;;;;;5055317;28;46645;-69
2022/04/14 07:55:41;;;;;;;;;12.00;11.00;;;;;;;;5056667;28;45362;-69
2022/04/14 07:58:07;;;;;;;;;10.75;10.75;;;;;;;;5055728;28;45912;-69
2022/04/14 08:00:36;;;;;;;;;14.00;13.00;;;;;;;;5056672;28;45539;-69
2022/04/14 08:03:02;;;;;;;;;12.00;10.50;;;;;;;;5058059;28;45889;-70
2022/04/14 08:05:27;;;;;;;;;14.25;13.75;;;;;;;;5058398;28;45430;-70
2022/04/14 08:07:52;;;;;;;;;21.25;17.50;;;;;;;;5058145;28;45307;-70
2022/04/14 08:10:18;;;;;;;;;15.00;13.00;;;;;;;;5058624;28;45521;-70
2022/04/14 08:12:43;;;;;;;;;14.25;14.00;;;;;;;;5058050;28;46065;-70
2022/04/14 08:15:11;;;;;;;;;16.50;14.75;;;;;;;;5056685;28;45316;-72
2022/04/14 08:17:37;;;;;;;;;13.25;11.50;;;;;;;;5055817;28;45450;-73
2022/04/14 08:20:05;;;;;;;;;12.25;12.25;;;;;;;;5054286;28;45446;-73
2022/04/14 08:22:42;;;;;;;;;13.00;12.75;;;;;;;;5056265;28;45512;-75
2022/04/14 08:25:08;;;;;;;;;13.75;13.00;;;;;;;;5054814;28;45715;-74
2022/04/14 08:27:33;;;;;;;;;14.00;12.75;;;;;;;;5056609;28;45426;-71
2022/04/14 08:29:58;;;;;;;;;19.25;16.50;;;;;;;;5056829;28;45699;-71
2022/04/14 08:32:24;;;;;;;;;11.33;11.00;;;;;;;;5056313;28;45323;-70
2022/04/14 08:34:49;;;;;;;;;16.25;13.75;;;;;;;;5056604;28;45363;-71
2022/04/14 08:37:14;;;;;;;;;14.00;13.00;;;;;;;;5056610;28;45379;-70
2022/04/14 08:39:40;;;;;;;;;18.00;17.25;;;;;;;;5056666;28;45497;-71
2022/04/14 08:42:12;;;;;;;;;18.67;15.00;;;;;;;;5055944;28;45476;-70
2022/04/14 08:44:42;;;;;;;;;16.50;13.25;;;;;;;;5056146;28;45863;-70
2022/04/14 08:47:08;;;;;;;;;14.00;13.67;;;;;;;;5055991;28;45580;-70
2022/04/14 08:49:33;;;;;;;;;16.33;14.00;;;;;;;;5056529;28;45492;-70
2022/04/14 08:51:59;;;;;;;;;13.33;13.00;;;;;;;;5057057;28;45674;-70
2022/04/14 08:54:25;;;;;;;;;15.33;14.00;;;;;;;;5056375;28;45643;-73
2022/04/14 08:56:51;;;;;;;;;13.33;13.33;;;;;;;;5056763;28;45509;-73
2022/04/14 08:59:18;;;;;;;;;14.00;14.00;;;;;;;;5057144;28;45580;-73
2022/04/14 09:01:44;;;;;;;;;17.50;14.50;;;;;;;;5056098;28;45462;-73
2022/04/14 09:04:09;;;;;;;;;15.00;15.00;;;;;;;;5053707;28;45508;-73
2022/04/14 09:06:34;;;;;;;;;15.00;13.67;;;;;;;;5004759;27;45635;-75
2022/04/14 09:09:00;;;;;;;;;15.00;13.00;;;;;;;;5070195;28;45440;-74
2022/04/14 09:11:27;;;;;;;;;15.25;13.75;;;;;;;;5066439;28;45644;-75
2022/04/14 09:13:53;;;;;;;;;10.00;8.67;;;;;;;;5064910;28;45422;-72
2022/04/14 09:16:18;;;;;;;;;16.50;14.75;;;;;;;;5061565;27;45407;-73
2022/04/14 09:18:45;;;;;;;;;10.00;9.00;;;;;;;;5057365;28;45467;-74
2022/04/14 09:21:11;;;;;;;;;7.67;7.00;;;;;;;;5057100;28;46149;-73
2022/04/14 09:23:36;;;;;;;;;7.67;7.00;;;;;;;;5056382;28;45318;-74
2022/04/14 09:26:14;;;;;;;;;7.67;7.67;;;;;;;;5055775;28;45422;-74
2022/04/14 09:29:03;;;;;;;;;8.33;8.33;;;;;;;;5056743;28;45283;-74
2022/04/14 09:31:29;;;;;;;;;8.67;8.33;;;;;;;;5049768;28;45780;-74
2022/04/14 09:33:55;;;;;;;;;9.00;9.00;;;;;;;;5056620;28;45473;-74
2022/04/14 09:36:21;;;;;;;;;8.67;8.67;;;;;;;;5056893;28;45414;-73
2022/04/14 09:39:05;;;;;;;;;6.33;6.33;;;;;;;;5056846;28;45203;-73
2022/04/14 09:41:30;;;;;;;;;10.67;7.00;;;;;;;;5056875;28;45379;-73
2022/04/14 09:43:57;;;;;;;;;7.00;6.00;;;;;;;;5054843;28;45310;-74
2022/04/14 09:46:22;;;;;;;;;7.00;7.00;;;;;;;;5067842;28;45329;-70
2022/04/14 09:49:09;;;;;;;;;5.33;5.00;;;;;;;;5075563;27;45472;-71
2022/04/14 09:51:36;;;;;;;;;5.00;5.00;;;;;;;;5074808;27;45563;-71
2022/04/14 09:54:18;;;;;;;;;7.00;7.00;;;;;;;;5067083;27;45546;-69
2022/04/14 09:56:54;;;;;;;;;9.00;8.33;;;;;;;;5065083;28;45563;-69
2022/04/14 09:59:21;;;;;;;;;10.00;8.67;;;;;;;;5063697;28;45398;-69
2022/04/14 10:01:48;;;;;;;;;9.00;8.67;;;;;;;;5054369;27;45613;-69
2022/04/14 10:04:34;;;;;;;;;11.67;9.00;;;;;;;;5055577;28;45364;-69
2022/04/14 10:07:03;;;;;;;;;10.00;9.67;;;;;;;;5054810;28;45415;-69
2022/04/14 10:09:30;;;;;;;;;14.33;14.33;;;;;;;;5056440;28;45413;-69
2022/04/14 10:11:55;;;;;;;;;17.67;16.67;;;;;;;;5055864;28;45274;-70
2022/04/14 10:14:24;;;;;;;;;18.00;16.33;;;;;;;;5055760;28;45457;-70
2022/04/14 10:16:50;;;;;;;;;19.67;17.33;;;;;;;;5056326;28;45535;-69
2022/04/14 10:19:16;;;;;;;;;18.33;16.67;;;;;;;;5056566;28;45999;-71
2022/04/14 10:21:43;;;;;;;;;17.33;16.67;;;;;;;;5056012;28;45392;-69
2022/04/14 10:24:08;;;;;;;;;21.67;19.00;;;;;;;;5056301;28;45397;-69
2022/04/14 10:26:35;;;;;;;;;17.00;16.00;;;;;;;;5056747;28;45441;-69
2022/04/14 10:29:01;;;;;;;;;15.67;14.67;;;;;;;;5056757;28;45497;-69
2022/04/14 10:31:27;;;;;;;;;18.33;16.33;;;;;;;;5055231;28;45424;-69
2022/04/14 10:33:53;;;;;;;;;17.00;16.00;;;;;;;;5055666;28;45511;-69
2022/04/14 10:36:19;;;;;;;;;20.67;19.00;;;;;;;;5056041;28;45287;-71
2022/04/14 10:38:45;;;;;;;;;21.33;18.33;;;;;;;;5056002;28;45416;-69
2022/04/14 10:41:15;;;;;;;;;22.75;20.50;;;;;;;;5055375;28;45403;-69
2022/04/14 10:43:42;;;;;;;;;22.75;19.75;;;;;;;;5055446;28;45599;-69
2022/04/14 10:46:08;;;;;;;;;22.25;21.00;;;;;;;;5056031;28;45328;-69
2022/04/14 10:48:35;;;;;;;;;30.50;25.50;;;;;;;;5056231;28;45535;-69
2022/04/14 10:51:19;;;;;;;;;18.00;17.00;;;;;;;;5056132;28;46537;-69
2022/04/14 10:53:48;;;;;;;;;22.25;21.00;;;;;;;;5055323;28;45429;-69
2022/04/14 10:56:32;;;;;;;;;20.67;18.00;;;;;;;;5055904;28;45424;-69
2022/04/14 10:58:57;;;;;;;;;16.33;14.67;;;;;;;;5055936;28;45364;-69
2022/04/14 11:01:41;;;;;;;;;19.00;18.33;;;;;;;;5055084;28;45477;-69
2022/04/14 11:04:25;;;;;;;;;17.67;16.67;;;;;;;;5055959;28;45460;-69
2022/04/14 11:06:51;;;;;;;;;17.33;15.00;;;;;;;;5055473;28;45369;-69
2022/04/14 11:09:35;;;;;;;;;14.00;13.67;;;;;;;;5055643;28;45586;-69
2022/04/14 11:12:01;;;;;;;;;15.67;14.67;;;;;;;;5055025;28;45501;-69
2022/04/14 11:14:26;;;;;;;;;15.00;14.33;;;;;;;;5055341;28;45407;-69
2022/04/14 11:16:52;;;;;;;;;17.00;14.67;;;;;;;;5055417;28;45433;-69
2022/04/14 11:19:27;;;;;;;;;18.00;15.33;;;;;;;;5058697;28;45460;-69
2022/04/14 11:21:59;;;;;;;;;15.67;13.67;;;;;;;;5058522;28;45394;-69
2022/04/14 11:24:36;;;;;;;;;14.67;14.00;;;;;;;;5058279;28;45508;-69
2022/04/14 11:27:30;;;;;;;;;10.67;10.33;;;;;;;;5059111;28;45451;-69
2022/04/14 11:29:59;;;;;;;;;14.33;12.00;;;;;;;;5058590;28;45432;-70
2022/04/14 11:32:41;;;;;;;;;13.00;12.00;;;;;;;;5058120;28;45365;-69
2022/04/14 11:35:13;;;;;;;;;14.00;13.00;;;;;;;;5058762;28;45254;-69
2022/04/14 11:37:42;;;;;;;;;16.00;15.00;;;;;;;;5059336;28;45342;-69
2022/04/14 11:40:17;;;;;;;;;16.67;15.33;;;;;;;;5059272;28;45585;-69
2022/04/14 11:42:43;;;;;;;;;14.33;13.00;;;;;;;;5058767;28;46128;-69
2022/04/14 11:45:09;;;;;;;;;14.67;14.33;;;;;;;;5057341;28;45345;-71
2022/04/14 11:47:34;;;;;;;;;14.67;13.00;;;;;;;;5058224;28;45337;-69
2022/04/14 11:49:59;;;;;;;;;16.33;13.33;;;;;;;;5058607;28;45377;-69
2022/04/14 11:52:25;;;;;;;;;13.00;12.00;;;;;;;;5057962;28;45962;-69
2022/04/14 11:54:50;;;;;;;;;18.00;16.00;;;;;;;;5058354;28;45707;-69
2022/04/14 11:57:20;;;;;;;;;14.33;13.67;;;;;;;;5056992;28;45872;-69
2022/04/14 11:59:58;;;;;;;;;15.33;14.67;;;;;;;;5058501;28;45472;-70
2022/04/14 12:02:24;;;;;;;;;14.00;13.00;;;;;;;;5057643;28;45325;-70
2022/04/14 12:04:51;;;;;;;;;26.00;25.00;;;;;;;;5058252;28;45413;-69
2022/04/14 12:07:16;;;;;;;;;17.33;15.33;;;;;;;;5058786;28;45384;-70
2022/04/14 12:09:42;;;;;;;;;15.67;14.00;;;;;;;;5058550;28;45398;-70
2022/04/14 12:12:12;;;;;;;;;15.67;15.33;;;;;;;;5056928;28;47889;-70
2022/04/14 12:14:55;;;;;;;;;18.67;17.00;;;;;;;;5057849;28;45505;-69
2022/04/14 12:17:22;;;;;;;;;15.67;15.00;;;;;;;;5058056;28;45532;-70
2022/04/14 12:19:51;;;;;;;;;14.67;13.67;;;;;;;;5057987;28;45307;-69
2022/04/14 12:22:16;;;;;;;;;15.00;14.00;;;;;;;;5057179;28;45330;-70
2022/04/14 12:24:49;;;;;;;;;14.67;14.67;;;;;;;;5057899;28;45308;-70
2022/04/14 12:27:15;;;;;;;;;13.67;13.67;;;;;;;;5058056;28;45377;-70
2022/04/14 12:29:43;;;;;;;;;13.33;13.33;;;;;;;;5055918;28;45531;-70
2022/04/14 12:32:13;;;;;;;;;34.50;31.50;;;;;;;;5057579;28;46085;-70
2022/04/14 12:34:45;;;;;;;;;15.67;15.00;;;;;;;;5058269;28;45222;-70
2022/04/14 12:37:18;;;;;;;;;16.67;14.67;;;;;;;;5058280;28;45392;-69
2022/04/14 12:39:54;;;;;;;;;15.00;13.00;;;;;;;;5057857;28;45397;-70
2022/04/14 12:42:23;;;;;;;;;13.00;11.67;;;;;;;;5057542;28;46075;-69
2022/04/14 12:44:48;;;;;;;;;16.33;15.00;;;;;;;;5057468;28;45345;-70
2022/04/14 12:47:14;;;;;;;;;16.00;15.67;;;;;;;;5057075;28;45461;-70
2022/04/14 12:49:40;;;;;;;;;15.33;14.67;;;;;;;;5058055;28;45549;-70
2022/04/14 12:52:07;;;;;;;;;14.00;13.00;;;;;;;;5056012;28;45664;-70
2022/04/14 12:54:34;;;;;;;;;15.00;11.33;;;;;;;;5056178;28;45519;-70
2022/04/14 12:56:59;;;;;;;;;14.33;14.00;;;;;;;;5057116;28;45324;-70
2022/04/14 12:59:25;;;;;;;;;13.00;12.33;;;;;;;;5057507;28;45557;-70
2022/04/14 13:02:03;;;;;;;;;11.67;11.67;;;;;;;;5057113;28;45537;-70
2022/04/14 13:04:33;;;;;;;;;12.33;12.33;;;;;;;;5057318;28;45535;-70
2022/04/14 13:06:59;;;;;;;;;15.33;10.00;;;;;;;;5057077;28;45320;-70
2022/04/14 13:09:25;;;;;;;;;13.33;11.67;;;;;;;;5057391;28;45645;-70
2022/04/14 13:11:50;;;;;;;;;10.00;9.67;;;;;;;;5057068;28;45598;-70
2022/04/14 13:14:23;;;;;;;;;8.00;7.33;;;;;;;;5057367;28;45392;-70
2022/04/14 13:16:50;;;;;;;;;10.67;9.67;;;;;;;;5056700;28;45386;-69
2022/04/14 13:19:15;;;;;;;;;12.00;11.33;;;;;;;;5055792;28;45451;-70
2022/04/14 13:21:41;;;;;;;;;9.00;9.00;;;;;;;;5057580;28;45405;-70
2022/04/14 13:24:06;;;;;;;;;9.67;9.00;;;;;;;;5056927;28;45460;-70
2022/04/14 13:26:31;;;;;;;;;13.00;12.67;;;;;;;;5055520;28;45828;-70
2022/04/14 13:28:57;;;;;;;;;12.33;12.00;;;;;;;;5055687;28;45329;-70
2022/04/14 13:31:22;;;;;;;;;11.00;10.00;;;;;;;;5054735;28;46793;-70
2022/04/14 13:33:47;;;;;;;;;12.00;12.00;;;;;;;;5054815;28;45463;-70
2022/04/14 13:36:13;;;;;;;;;11.00;11.00;;;;;;;;5055421;28;45509;-70
2022/04/14 13:38:38;;;;;;;;;14.33;12.33;;;;;;;;5055095;28;45453;-70
2022/04/14 13:41:03;;;;;;;;;10.33;10.33;;;;;;;;5055225;28;45456;-70
2022/04/14 13:43:29;;;;;;;;;13.00;13.00;;;;;;;;5056457;28;45390;-70
2022/04/14 13:45:54;;;;;;;;;8.00;6.00;;;;;;;;5056390;28;45268;-70
2022/04/14 13:48:20;;;;;;;;;10.00;10.00;;;;;;;;5056319;28;45231;-70
2022/04/14 13:50:45;;;;;;;;;9.33;8.67;;;;;;;;5056309;28;46049;-70
2022/04/14 13:53:13;;;;;;;;;8.33;8.33;;;;;;;;5056169;28;45459;-70
2022/04/14 13:55:38;;;;;;;;;8.33;8.00;;;;;;;;5056319;28;45305;-70
2022/04/14 13:58:04;;;;;;;;;21.00;18.33;;;;;;;;5056097;28;45234;-70
2022/04/14 14:00:29;;;;;;;;;12.33;12.33;;;;;;;;5056304;28;46125;-70
2022/04/14 14:02:55;;;;;;;;;17.00;15.67;;;;;;;;5056227;28;45474;-70
2022/04/14 14:05:20;;;;;;;;;15.33;15.33;;;;;;;;5054642;28;45309;-70
2022/04/14 14:07:46;;;;;;;;;9.00;8.00;;;;;;;;5056964;28;45469;-70
2022/04/14 14:10:12;;;;;;;;;7.67;7.00;;;;;;;;5056168;28;46121;-70
2022/04/14 14:12:39;;;;;;;;;9.00;8.00;;;;;;;;5056117;28;45614;-70
2022/04/14 14:15:08;;;;;;;;;9.00;8.33;;;;;;;;5054646;28;45609;-70
2022/04/14 14:17:38;;;;;;;;;7.67;6.67;;;;;;;;5056394;28;45547;-70